Time;durP1;ratioP1;P1;durP2;ratioP2;P2;SDS_P1;SDS_P2;PMS_P1;PMS_P2;Temp;Humidity;BMP_temperature;BMP_pressure;BME280_temperature;BME280_humidity;BME280_pressure;Samples;Min_cycle;Max_cycle;Signal;HPM_P1;HPM_P2
2023/06/25 00:01:21;;;;;;;10.50;7.07;;;;;;;25.59;54.94;95132.00;6157741;28;109967;-57
2023/06/25 00:04:26;;;;;;;8.10;7.30;;;;;;;25.61;55.23;95131.66;6141044;28;109489;-57
2023/06/25 00:07:29;;;;;;;8.70;7.90;;;;;;;25.62;55.35;95125.19;6150710;28;110007;-57
2023/06/25 00:10:32;;;;;;;9.23;8.47;;;;;;;25.63;54.98;95116.81;6165643;28;109344;-59
2023/06/25 00:13:35;;;;;;;9.07;8.17;;;;;;;25.66;55.35;95120.75;6164499;28;108940;-57
2023/06/25 00:16:39;;;;;;;10.40;9.50;;;;;;;25.65;54.97;95122.63;6154947;28;110424;-59
2023/06/25 00:19:44;;;;;;;10.80;9.20;;;;;;;25.65;55.36;95119.97;6165427;28;110003;-58
2023/06/25 00:22:47;;;;;;;9.80;8.90;;;;;;;25.65;55.08;95116.50;6164780;28;109028;-58
2023/06/25 00:26:08;;;;;;;7.30;6.60;;;;;;;25.63;55.23;95116.81;6164817;28;109192;-57
2023/06/25 00:29:12;;;;;;;8.03;7.27;;;;;;;25.66;55.03;95104.66;6155356;28;110317;-57
2023/06/25 00:32:16;;;;;;;10.43;9.50;;;;;;;25.66;54.80;95105.44;6141217;28;110414;-57
2023/06/25 00:35:24;;;;;;;10.73;9.63;;;;;;;25.66;54.75;95102.75;6142720;28;109131;-62
2023/06/25 00:38:27;;;;;;;11.00;10.10;;;;;;;25.65;55.37;95109.25;6160120;28;109211;-61
2023/06/25 00:41:30;;;;;;;11.60;10.40;;;;;;;25.63;54.90;95108.78;6150454;28;110324;-63
2023/06/25 00:44:40;;;;;;;10.13;8.70;;;;;;;25.64;55.13;95110.34;6164143;28;109112;-62
2023/06/25 00:47:45;;;;;;;10.00;9.10;;;;;;;25.63;55.05;95106.09;6150116;28;110064;-71
2023/06/25 00:50:50;;;;;;;10.83;9.70;;;;;;;25.61;55.04;95097.63;6143359;28;110485;-62
2023/06/25 00:53:53;;;;;;;10.20;9.40;;;;;;;25.62;55.05;95093.03;6151789;28;109074;-62
2023/06/25 00:56:56;;;;;;;10.83;9.83;;;;;;;25.61;55.35;95092.25;6149923;28;109351;-62
2023/06/25 00:59:59;;;;;;;10.50;9.53;;;;;;;25.59;55.58;95097.16;6140315;28;109144;-63
2023/06/25 01:03:12;;;;;;;10.07;9.17;;;;;;;25.59;55.53;95091.00;6153437;28;110699;-63
2023/06/25 01:06:29;;;;;;;10.00;9.10;;;;;;;25.59;55.29;95104.41;6155656;28;109223;-62
2023/06/25 01:09:33;;;;;;;9.73;8.83;;;;;;;25.59;55.10;95110.56;6164148;28;110372;-63
2023/06/25 01:12:36;;;;;;;9.67;8.80;;;;;;;25.57;55.72;95110.09;6155859;28;108964;-63
2023/06/25 01:15:39;;;;;;;8.57;7.87;;;;;;;25.58;55.16;95106.31;6138552;28;109952;-61
2023/06/25 01:18:43;;;;;;;10.10;8.37;;;;;;;25.57;55.32;95101.28;6142988;28;108989;-63
2023/06/25 01:22:04;;;;;;;15.23;9.70;;;;;;;25.59;55.37;95107.09;6157288;28;109210;-62
2023/06/25 01:25:09;;;;;;;8.83;8.03;;;;;;;25.59;55.24;95112.44;6149316;28;110350;-64
2023/06/25 01:28:12;;;;;;;9.97;9.17;;;;;;;25.60;55.00;95116.69;6163504;28;108853;-63
2023/06/25 01:31:15;;;;;;;10.40;9.50;;;;;;;25.59;55.09;95109.78;6163487;28;110636;-62
2023/06/25 01:34:20;;;;;;;10.73;9.10;;;;;;;25.60;55.27;95119.38;6156100;28;109085;-61
2023/06/25 01:37:23;;;;;;;11.53;10.53;;;;;;;25.61;54.98;95120.94;6129936;28;108978;-62
2023/06/25 01:40:27;;;;;;;10.93;9.93;;;;;;;25.61;55.32;95120.94;6147902;28;110153;-61
2023/06/25 01:43:31;;;;;;;10.97;10.07;;;;;;;25.61;55.45;95121.72;6159182;28;108933;-62
2023/06/25 01:46:34;;;;;;;10.23;9.33;;;;;;;25.61;55.15;95119.06;6156480;28;109002;-61
2023/06/25 01:49:37;;;;;;;10.17;9.27;;;;;;;25.62;55.43;95125.19;6150321;28;109265;-63
2023/06/25 01:52:40;;;;;;;9.30;8.50;;;;;;;25.61;54.90;95121.72;6145847;28;109953;-62
2023/06/25 01:55:45;;;;;;;14.47;7.10;;;;;;;25.64;55.54;95125.66;6148332;28;109395;-63
2023/06/25 01:58:50;;;;;;;8.60;7.90;;;;;;;25.63;55.26;95130.22;6141335;28;109977;-62
2023/06/25 02:01:53;;;;;;;9.60;8.60;;;;;;;25.61;55.42;95127.09;6143684;28;108917;-62
2023/06/25 02:04:56;;;;;;;9.47;8.57;;;;;;;25.61;55.10;95121.72;6160857;28;109097;-62
2023/06/25 02:07:59;;;;;;;8.83;7.83;;;;;;;25.60;54.72;95119.38;6162758;28;109257;-63
2023/06/25 02:11:06;;;;;;;9.20;8.30;;;;;;;25.59;55.10;95115.91;6151314;28;109031;-63
2023/06/25 02:14:09;;;;;;;8.33;7.47;;;;;;;25.60;55.23;95122.84;6154754;28;108990;-63
2023/06/25 02:17:12;;;;;;;10.50;9.50;;;;;;;25.59;54.98;95120.50;6159679;28;110374;-63
2023/06/25 02:20:16;;;;;;;9.80;8.90;;;;;;;25.59;54.82;95123.97;6140283;28;110155;-62
2023/06/25 02:23:19;;;;;;;9.23;8.33;;;;;;;25.59;54.82;95125.84;6128883;28;110648;-63
2023/06/25 02:26:24;;;;;;;8.80;8.00;;;;;;;25.60;55.12;95122.84;6154566;28;110078;-68
2023/06/25 02:29:27;;;;;;;11.23;10.07;;;;;;;25.60;55.04;95125.53;6146685;28;108783;-63
2023/06/25 02:32:30;;;;;;;10.63;9.53;;;;;;;25.59;54.49;95115.13;6144762;28;111047;-59
2023/06/25 02:35:33;;;;;;;10.03;9.10;;;;;;;25.57;54.85;95120.81;6148390;28;110181;-62
2023/06/25 02:38:37;;;;;;;10.60;8.30;;;;;;;25.56;54.95;95121.94;6153673;28;110051;-63
2023/06/25 02:41:41;;;;;;;13.27;10.50;;;;;;;25.56;54.86;95115.78;6138747;28;109104;-62
2023/06/25 02:44:44;;;;;;;10.37;9.47;;;;;;;25.56;54.79;95121.94;6141775;28;109763;-63
2023/06/25 02:47:48;;;;;;;13.47;9.20;;;;;;;25.56;54.68;95126.50;6145065;28;109064;-64
2023/06/25 02:50:51;;;;;;;10.70;8.60;;;;;;;25.56;54.63;95127.28;6153171;28;109622;-63
2023/06/25 02:53:54;;;;;;;11.70;10.50;;;;;;;25.56;54.84;95127.28;6143411;28;109021;-61
2023/06/25 02:56:59;;;;;;;12.53;11.23;;;;;;;25.57;54.55;95126.19;6141440;28;109747;-58
2023/06/25 03:00:02;;;;;;;11.17;10.17;;;;;;;25.55;54.85;95130.31;6138191;28;110991;-58
2023/06/25 03:03:06;;;;;;;11.50;10.47;;;;;;;25.55;55.16;95128.41;6149933;28;109995;-58
2023/06/25 03:06:10;;;;;;;12.17;11.07;;;;;;;25.55;54.73;95131.09;6155347;28;109092;-59
2023/06/25 03:09:13;;;;;;;10.47;9.37;;;;;;;25.56;54.87;95129.97;6144832;28;109041;-58
2023/06/25 03:12:17;;;;;;;9.70;8.80;;;;;;;25.56;54.59;95132.66;6148450;28;109012;-58
2023/06/25 03:15:20;;;;;;;10.70;9.60;;;;;;;25.56;54.67;95132.66;6158870;28;109182;-58
2023/06/25 03:18:24;;;;;;;10.57;9.57;;;;;;;25.57;54.36;95131.53;6149415;28;109975;-58
2023/06/25 03:21:27;;;;;;;10.80;9.73;;;;;;;25.56;54.55;95127.28;6144092;28;108621;-59
2023/06/25 03:24:30;;;;;;;10.10;9.13;;;;;;;25.58;54.57;95130.44;6144968;28;110064;-60
2023/06/25 03:27:35;;;;;;;10.30;9.40;;;;;;;25.63;54.49;95137.47;6146379;28;109990;-62
2023/06/25 03:30:38;;;;;;;9.77;8.87;;;;;;;25.64;54.18;95141.72;6129699;28;109651;-60
2023/06/25 03:33:41;;;;;;;10.17;8.70;;;;;;;25.65;54.10;95144.09;6140145;28;110187;-60
2023/06/25 03:36:45;;;;;;;10.90;9.80;;;;;;;25.65;54.34;95146.75;6160401;28;109018;-60
2023/06/25 03:39:48;;;;;;;10.77;9.77;;;;;;;25.65;54.09;95157.50;6161915;28;109074;-62
2023/06/25 03:42:52;;;;;;;12.60;10.00;;;;;;;25.65;54.32;95152.13;6132279;28;111020;-59
2023/06/25 03:45:55;;;;;;;10.97;9.80;;;;;;;25.65;54.64;95140.63;6153665;28;108969;-60
2023/06/25 03:48:58;;;;;;;12.73;9.50;;;;;;;25.65;54.17;95129.91;6164663;28;109869;-60
2023/06/25 03:52:02;;;;;;;12.70;9.93;;;;;;;25.64;54.57;95139.06;6153496;28;109152;-62
2023/06/25 03:55:05;;;;;;;11.37;10.20;;;;;;;25.62;54.47;95136.69;6162855;28;109022;-62
2023/06/25 03:58:10;;;;;;;10.53;9.53;;;;;;;25.62;54.32;95147.41;6166025;28;108767;-61
2023/06/25 04:01:13;;;;;;;14.10;9.90;;;;;;;25.58;54.49;95143.81;6164620;28;112343;-61
2023/06/25 04:04:16;;;;;;;12.80;9.53;;;;;;;25.61;54.21;95139.72;6150696;28;109303;-62
2023/06/25 04:07:19;;;;;;;10.10;8.87;;;;;;;25.59;54.54;95134.69;6143572;28;108992;-63
2023/06/25 04:10:23;;;;;;;13.43;10.77;;;;;;;25.57;54.86;95120.81;6142295;28;109508;-64
2023/06/25 04:13:27;;;;;;;14.83;13.33;;;;;;;25.58;54.58;95118.94;6141358;28;108980;-61
2023/06/25 04:16:30;;;;;;;90.90;21.90;;;;;;;25.58;54.70;95119.72;6132549;28;109833;-62
2023/06/25 04:19:33;;;;;;;32.67;29.73;;;;;;;25.58;55.02;95122.38;6148605;28;110125;-62
2023/06/25 04:22:37;;;;;;;22.43;18.30;;;;;;;25.59;54.96;95123.16;6163943;28;110258;-62
2023/06/25 04:25:41;;;;;;;14.00;12.70;;;;;;;25.58;54.71;95118.94;6160030;28;109160;-62
2023/06/25 04:28:45;;;;;;;14.17;12.67;;;;;;;25.58;54.77;95117.03;6135439;28;108990;-62
2023/06/25 04:31:48;;;;;;;13.97;12.40;;;;;;;25.58;54.80;95114.34;6141022;28;108777;-61
2023/06/25 04:34:51;;;;;;;11.07;9.70;;;;;;;24.99;55.04;95108.97;6150110;28;108978;-62
2023/06/25 04:37:54;;;;;;;12.03;8.67;;;;;;;24.70;55.99;95112.44;6152178;28;109379;-63
2023/06/25 04:40:57;;;;;;;11.80;8.27;;;;;;;24.87;56.02;95110.78;6148670;28;110591;-62
2023/06/25 04:44:02;;;;;;;12.13;8.03;;;;;;;25.03;55.39;95109.94;6163163;28;109101;-63
2023/06/25 04:47:05;;;;;;;10.50;8.90;;;;;;;25.13;55.24;95108.75;6161303;28;110100;-63
2023/06/25 04:50:10;;;;;;;10.97;7.90;;;;;;;25.17;55.13;95117.72;6143206;28;109075;-62
2023/06/25 04:53:13;;;;;;;10.33;7.93;;;;;;;25.15;55.29;95121.81;6159342;28;109877;-62
2023/06/25 04:56:16;;;;;;;8.63;6.93;;;;;;;25.17;54.95;95120.38;6142392;28;108679;-61
2023/06/25 04:59:21;;;;;;;10.63;7.97;;;;;;;25.15;54.92;95119.16;6144281;28;109112;-64
2023/06/25 05:02:24;;;;;;;7.97;7.17;;;;;;;25.16;54.83;95113.47;6136914;28;109206;-64
2023/06/25 05:05:27;;;;;;;7.73;7.00;;;;;;;25.17;54.99;95111.56;6151982;28;109368;-64
2023/06/25 05:08:30;;;;;;;13.20;7.97;;;;;;;25.15;54.91;95097.72;6164130;28;110983;-63
2023/06/25 05:11:33;;;;;;;14.30;9.67;;;;;;;25.20;54.78;95108.25;6148777;28;110636;-63
2023/06/25 05:14:38;;;;;;;14.10;8.47;;;;;;;25.20;54.54;95111.69;6161248;28;109179;-62
2023/06/25 05:17:41;;;;;;;20.00;11.10;;;;;;;25.21;54.93;95105.25;6163216;28;110042;-62
2023/06/25 05:20:45;;;;;;;12.90;8.90;;;;;;;25.23;55.01;95107.63;6164164;28;109671;-63
2023/06/25 05:23:58;;;;;;;12.63;8.17;;;;;;;25.20;54.80;95111.69;6153939;28;109986;-64
2023/06/25 05:27:01;;;;;;;18.63;8.37;;;;;;;24.84;55.67;95090.00;6159043;28;109984;-65
2023/06/25 05:30:07;;;;;;;14.50;7.73;;;;;;;24.41;57.10;95093.59;6146074;28;109253;-65
2023/06/25 05:33:10;;;;;;;12.93;10.70;;;;;;;24.27;57.77;95095.69;6140946;28;109344;-66
2023/06/25 05:36:14;;;;;;;10.17;7.73;;;;;;;24.33;58.27;95092.50;6149710;28;109535;-65
2023/06/25 05:39:17;;;;;;;9.93;7.03;;;;;;;24.35;57.69;95094.84;6164157;28;109606;-65
2023/06/25 05:42:20;;;;;;;8.40;6.83;;;;;;;24.28;58.00;95089.22;6164357;28;109335;-64
2023/06/25 05:45:24;;;;;;;7.50;6.40;;;;;;;24.19;58.05;95091.91;6158723;28;109642;-65
2023/06/25 05:48:27;;;;;;;7.30;6.60;;;;;;;23.97;58.51;95087.50;6158770;28;109015;-66
2023/06/25 05:51:30;;;;;;;7.67;6.00;;;;;;;23.87;58.44;95091.31;6164090;28;109394;-65
2023/06/25 05:54:34;;;;;;;6.70;6.00;;;;;;;23.86;58.37;95095.09;6163279;28;109073;-64
2023/06/25 05:57:37;;;;;;;7.50;5.90;;;;;;;23.96;58.54;95093.97;6152733;28;110604;-65
2023/06/25 06:00:41;;;;;;;8.23;5.87;;;;;;;24.04;58.00;95103.91;6162577;28;108891;-64
2023/06/25 06:03:44;;;;;;;44.30;31.67;;;;;;;24.22;58.18;95101.19;6153444;28;108980;-66
2023/06/25 06:06:47;;;;;;;9.03;7.73;;;;;;;24.00;58.54;95107.50;6144624;28;109000;-66
2023/06/25 06:09:51;;;;;;;8.00;7.20;;;;;;;23.87;58.95;95103.88;6132769;28;110385;-66
2023/06/25 06:12:54;;;;;;;8.87;6.53;;;;;;;23.82;58.76;95104.03;6161911;28;109391;-65
2023/06/25 06:15:59;;;;;;;7.90;6.80;;;;;;;23.57;59.94;95108.28;6146364;28;108954;-67
2023/06/25 06:19:02;;;;;;;7.00;6.30;;;;;;;23.72;58.95;95099.78;6158650;28;109797;-61
2023/06/25 06:22:05;;;;;;;19.40;17.60;;;;;;;23.59;59.64;95100.72;6141967;28;110254;-66
2023/06/25 06:25:09;;;;;;;20.13;18.23;;;;;;;23.54;59.59;95099.00;6147628;28;109967;-67
2023/06/25 06:28:14;;;;;;;8.60;7.80;;;;;;;23.57;60.01;95097.59;6155766;28;110740;-66
2023/06/25 06:31:18;;;;;;;8.53;7.70;;;;;;;23.81;59.88;95102.44;6137304;28;109021;-66
2023/06/25 06:34:22;;;;;;;9.37;8.10;;;;;;;23.95;59.55;95103.06;6143085;28;110044;-65
2023/06/25 06:37:25;;;;;;;10.27;9.27;;;;;;;23.70;60.90;95104.66;6151547;28;109044;-64
2023/06/25 06:40:28;;;;;;;9.60;7.30;;;;;;;23.52;61.90;95095.06;6153677;28;110245;-67
2023/06/25 06:43:32;;;;;;;7.27;6.60;;;;;;;23.37;61.94;95103.53;6152713;28;109915;-66
2023/06/25 06:46:36;;;;;;;7.80;7.13;;;;;;;23.27;61.70;95101.91;6151498;28;110859;-66
2023/06/25 06:49:39;;;;;;;9.50;8.70;;;;;;;23.47;60.72;95092.53;6154723;28;109052;-66
2023/06/25 06:52:43;;;;;;;8.13;7.33;;;;;;;23.57;61.80;95087.69;6151507;28;109012;-64
2023/06/25 06:55:46;;;;;;;8.73;7.93;;;;;;;23.85;60.89;95084.69;6141147;28;108967;-65
2023/06/25 06:58:49;;;;;;;8.63;7.83;;;;;;;24.05;60.14;95086.75;6148078;28;109048;-66
2023/06/25 07:01:54;;;;;;;8.87;8.17;;;;;;;23.96;61.18;95085.94;6140518;28;108984;-64
2023/06/25 07:04:57;;;;;;;7.90;7.20;;;;;;;24.03;59.82;95077.47;6140345;28;110036;-65
2023/06/25 07:08:00;;;;;;;7.17;6.57;;;;;;;23.46;62.61;95072.28;6133705;28;109001;-65
2023/06/25 07:11:03;;;;;;;8.20;6.20;;;;;;;23.78;60.62;95071.81;6139394;28;109211;-66
2023/06/25 07:14:07;;;;;;;5.50;5.10;;;;;;;23.93;59.30;95075.09;6162370;28;108815;-65
2023/06/25 07:17:12;;;;;;;7.17;5.57;;;;;;;24.15;59.10;95073.03;6133995;28;108834;-66
2023/06/25 07:20:15;;;;;;;6.67;6.07;;;;;;;24.26;59.12;95075.38;6138358;28;109148;-66
2023/06/25 07:23:18;;;;;;;14.93;5.70;;;;;;;24.35;59.88;95076.13;6138430;28;108944;-67
2023/06/25 07:26:22;;;;;;;20.70;5.90;;;;;;;24.42;59.69;95077.22;6149351;28;109001;-65
2023/06/25 07:29:25;;;;;;;7.33;5.57;;;;;;;24.48;59.46;95080.50;6147688;28;108994;-60
2023/06/25 07:32:29;;;;;;;7.10;5.90;;;;;;;24.53;60.06;95087.56;6154742;28;110386;-60
2023/06/25 07:35:32;;;;;;;16.27;5.97;;;;;;;24.42;61.46;95079.13;6152004;28;109017;-61
2023/06/25 07:38:35;;;;;;;6.73;5.40;;;;;;;24.57;60.65;95081.28;6145113;28;109286;-61
2023/06/25 07:41:39;;;;;;;8.30;6.30;;;;;;;24.43;60.48;95094.06;6152473;28;109103;-60
2023/06/25 07:44:42;;;;;;;46.40;11.43;;;;;;;24.69;59.64;95094.00;6147277;28;108990;-61
2023/06/25 07:48:00;;;;;;;161.57;17.10;;;;;;;24.74;59.04;95083.91;6161731;28;109050;-60
2023/06/25 07:51:03;;;;;;;81.33;12.00;;;;;;;24.87;58.66;95089.38;6151254;28;109608;-60
2023/06/25 07:54:06;;;;;;;21.27;7.30;;;;;;;24.80;58.01;95076.47;6161697;28;109046;-61
2023/06/25 07:57:10;;;;;;;14.03;7.30;;;;;;;24.79;57.85;95075.69;6145284;28;109270;-60
2023/06/25 08:00:14;;;;;;;9.50;7.00;;;;;;;24.93;57.97;95082.72;6155621;28;109242;-60
2023/06/25 08:03:18;;;;;;;7.53;5.93;;;;;;;25.04;57.73;95071.34;6149796;28;110071;-60
2023/06/25 08:06:21;;;;;;;15.80;6.47;;;;;;;25.10;56.78;95071.91;6153314;28;109127;-66
2023/06/25 08:09:25;;;;;;;6.93;5.70;;;;;;;24.76;56.38;95067.53;6142039;28;109068;-61
2023/06/25 08:12:29;;;;;;;16.87;6.20;;;;;;;24.69;55.97;95065.34;6146500;28;109048;-63
2023/06/25 08:15:32;;;;;;;93.07;10.13;;;;;;;24.81;56.16;95064.66;6139958;28;109108;-60
2023/06/25 08:18:37;;;;;;;28.20;6.90;;;;;;;24.84;56.53;95065.91;6139631;28;111161;-61
2023/06/25 08:21:40;;;;;;;10.30;6.20;;;;;;;24.85;56.76;95060.22;6143767;28;109082;-61
2023/06/25 08:24:43;;;;;;;14.60;5.40;;;;;;;24.83;56.45;95065.13;6147590;28;109083;-60
2023/06/25 08:27:46;;;;;;;34.03;10.63;;;;;;;24.94;56.34;95077.03;6164219;28;109105;-60
2023/06/25 08:30:49;;;;;;;13.00;7.10;;;;;;;25.07;56.09;95067.22;6162559;28;109094;-61
2023/06/25 08:33:54;;;;;;;7.80;6.60;;;;;;;24.87;56.38;95074.09;6161412;28;108954;-63
2023/06/25 08:36:57;;;;;;;8.70;6.47;;;;;;;24.90;56.37;95068.09;6131508;28;109084;-68
2023/06/25 08:40:00;;;;;;;7.47;6.33;;;;;;;24.89;56.17;95071.88;6141026;28;110209;-61
2023/06/25 08:43:03;;;;;;;12.80;6.10;;;;;;;25.08;56.15;95068.78;6152310;28;109018;-60
2023/06/25 08:46:08;;;;;;;9.93;6.53;;;;;;;25.05;55.45;95061.41;6156062;28;109228;-60
2023/06/25 08:49:13;;;;;;;17.57;6.97;;;;;;;25.03;55.59;95064.41;6130426;28;109229;-60
2023/06/25 08:52:19;;;;;;;9.93;6.90;;;;;;;25.00;55.40;95061.56;6162757;28;109071;-59
2023/06/25 08:55:24;;;;;;;16.57;7.60;;;;;;;24.95;55.08;95056.41;6165183;28;110981;-60
2023/06/25 08:58:29;;;;;;;15.10;7.00;;;;;;;24.84;56.25;95053.31;6159801;28;110176;-59
2023/06/25 09:01:32;;;;;;;24.03;9.63;;;;;;;24.97;55.88;95056.88;6139975;28;110020;-59
2023/06/25 09:04:37;;;;;;;43.30;10.07;;;;;;;25.01;55.48;95047.06;6146052;28;111025;-59
2023/06/25 09:07:44;;;;;;;8.30;7.50;;;;;;;25.11;56.24;95054.75;6158062;28;110130;-59
2023/06/25 09:10:50;;;;;;;12.50;7.50;;;;;;;25.23;56.12;95048.69;6153829;28;109380;-60
2023/06/25 09:13:56;;;;;;;9.17;7.20;;;;;;;25.25;55.31;95041.09;6164364;28;109022;-61
2023/06/25 09:16:59;;;;;;;14.20;8.90;;;;;;;25.18;55.56;95046.19;6154210;28;109539;-60
2023/06/25 09:20:08;;;;;;;20.37;8.50;;;;;;;25.26;55.46;95040.78;6165051;28;110498;-60
2023/06/25 09:23:12;;;;;;;17.57;8.30;;;;;;;25.37;55.44;95038.50;6135474;28;109568;-60
2023/06/25 09:26:15;;;;;;;85.70;14.60;;;;;;;25.27;54.82;95036.22;6159297;28;109008;-63
2023/06/25 09:29:19;;;;;;;43.40;10.30;;;;;;;25.38;55.54;95034.75;6139897;28;109019;-61
2023/06/25 09:32:22;;;;;;;17.70;9.20;;;;;;;25.31;55.85;95026.41;6139901;28;109106;-61
2023/06/25 09:35:29;;;;;;;10.53;7.20;;;;;;;25.35;55.06;95024.66;6155787;28;108871;-62
2023/06/25 09:38:33;;;;;;;8.07;7.30;;;;;;;25.27;55.11;95017.47;6164298;28;109019;-61
2023/06/25 09:41:37;;;;;;;21.10;8.07;;;;;;;25.27;55.05;95010.19;6164356;28;110363;-61
2023/06/25 09:44:42;;;;;;;10.60;7.07;;;;;;;25.43;56.40;95004.28;6145024;28;109296;-61
2023/06/25 09:47:47;;;;;;;13.87;7.40;;;;;;;25.45;55.44;95002.06;6148743;28;109295;-65
2023/06/25 09:50:56;;;;;;;8.97;6.63;;;;;;;25.34;54.22;95001.63;6163303;28;109260;-60
2023/06/25 09:54:04;;;;;;;8.40;6.50;;;;;;;25.12;52.84;94994.72;6156243;28;111349;-60
2023/06/25 09:57:10;;;;;;;7.23;5.90;;;;;;;25.13;52.38;94998.19;6138264;28;110498;-65
2023/06/25 10:00:15;;;;;;;5.43;5.03;;;;;;;25.11;52.36;94998.50;6162250;28;108989;-61
2023/06/25 10:03:19;;;;;;;6.17;5.57;;;;;;;25.15;52.43;94991.38;6163141;28;110093;-60
2023/06/25 10:06:24;;;;;;;5.87;5.30;;;;;;;25.19;52.36;94994.19;6147729;28;109213;-60
2023/06/25 10:09:27;;;;;;;6.00;5.50;;;;;;;25.42;51.47;94982.06;6157628;28;109343;-59
2023/06/25 10:12:33;;;;;;;5.83;5.37;;;;;;;25.64;51.71;94979.03;6162838;28;109154;-60
2023/06/25 10:15:37;;;;;;;8.60;5.90;;;;;;;25.68;51.60;94981.81;6157311;28;110336;-61
2023/06/25 10:18:43;;;;;;;6.60;5.40;;;;;;;25.77;51.92;94979.84;6128726;28;109029;-60
2023/06/25 10:21:58;;;;;;;7.77;6.40;;;;;;;25.77;52.97;94965.66;6151641;28;109155;-59
2023/06/25 10:25:01;;;;;;;5.97;5.47;;;;;;;25.82;52.82;94965.44;6151232;28;110053;-60
2023/06/25 10:28:09;;;;;;;6.10;5.50;;;;;;;25.79;52.32;94956.19;6163128;28;109005;-59
2023/06/25 10:31:13;;;;;;;6.77;6.07;;;;;;;25.78;52.76;94954.63;6151962;28;109781;-59
2023/06/25 10:34:17;;;;;;;11.43;6.57;;;;;;;25.80;53.28;94949.69;6160000;28;109519;-60
2023/06/25 10:37:22;;;;;;;7.67;6.80;;;;;;;25.84;53.09;94955.16;6161068;28;111136;-60
2023/06/25 10:40:25;;;;;;;6.83;6.20;;;;;;;25.82;53.93;94946.69;6157224;28;110052;-60
2023/06/25 10:43:28;;;;;;;9.17;7.50;;;;;;;25.92;54.60;94946.28;6151362;28;109731;-60
2023/06/25 10:46:32;;;;;;;7.83;6.70;;;;;;;25.91;54.03;94936.66;6149976;28;109819;-60
2023/06/25 10:49:38;;;;;;;7.27;6.53;;;;;;;25.90;54.38;94938.56;6140368;28;108624;-60
2023/06/25 10:52:42;;;;;;;7.50;6.77;;;;;;;25.89;54.27;94926.28;6130900;28;109183;-65
2023/06/25 10:55:48;;;;;;;8.00;7.30;;;;;;;25.90;54.61;94914.44;6140940;28;111984;-60
2023/06/25 10:58:57;;;;;;;7.80;7.13;;;;;;;25.84;54.44;94910.38;6148549;28;109026;-60
2023/06/25 11:02:13;;;;;;;7.77;7.07;;;;;;;25.89;54.48;94917.44;6149190;28;109012;-60
2023/06/25 11:05:16;;;;;;;8.30;7.50;;;;;;;25.89;54.47;94907.50;6142056;28;109111;-60
2023/06/25 11:08:24;;;;;;;8.10;7.40;;;;;;;25.92;55.03;94904.16;6158992;28;109076;-63
2023/06/25 11:11:30;;;;;;;8.80;8.10;;;;;;;25.94;54.69;94893.09;6144033;28;109414;-59
2023/06/25 11:14:33;;;;;;;11.00;10.10;;;;;;;25.94;54.93;94885.81;6149781;28;108990;-59
2023/06/25 11:17:36;;;;;;;11.07;10.17;;;;;;;25.96;54.60;94893.53;6148743;28;109006;-59
2023/06/25 11:20:40;;;;;;;10.33;9.53;;;;;;;25.91;55.27;94891.06;6155008;28;109148;-60
2023/06/25 11:23:45;;;;;;;17.90;15.60;;;;;;;25.90;55.39;94890.28;6146186;28;109005;-60
2023/06/25 11:26:48;;;;;;;17.53;13.60;;;;;;;26.00;55.58;94891.78;6151581;28;108983;-61
2023/06/25 11:29:53;;;;;;;18.73;13.70;;;;;;;26.04;54.85;94879.25;6157128;28;109809;-58
2023/06/25 11:33:08;;;;;;;20.93;14.60;;;;;;;26.15;54.90;94863.50;6159039;28;110418;-58
2023/06/25 11:36:12;;;;;;;21.13;16.37;;;;;;;26.14;55.21;94868.09;6158907;28;109013;-60
2023/06/25 11:39:17;;;;;;;16.17;14.40;;;;;;;26.18;55.26;94863.63;6149638;28;109987;-60
2023/06/25 11:42:21;;;;;;;20.23;15.43;;;;;;;26.20;55.41;94866.72;6137244;28;109039;-60
2023/06/25 11:45:25;;;;;;;17.90;15.87;;;;;;;26.19;55.17;94865.16;6137064;28;108985;-60
2023/06/25 11:48:28;;;;;;;15.90;14.27;;;;;;;26.16;55.31;94870.44;6154685;28;109029;-61
2023/06/25 11:51:31;;;;;;;15.63;14.03;;;;;;;26.19;55.71;94865.16;6153544;28;110487;-58
2023/06/25 11:54:36;;;;;;;15.33;13.77;;;;;;;26.23;55.52;94868.78;6138750;28;109326;-58
2023/06/25 11:57:40;;;;;;;18.37;14.60;;;;;;;26.23;55.72;94870.66;6141725;28;109024;-58
2023/06/25 12:00:43;;;;;;;16.77;15.03;;;;;;;26.23;55.60;94874.13;6147104;28;109923;-61
2023/06/25 12:03:47;;;;;;;16.47;14.50;;;;;;;26.25;55.28;94871.13;6164780;28;111276;-58
2023/06/25 12:06:50;;;;;;;15.97;14.37;;;;;;;26.27;55.16;94872.34;6155686;28;109241;-58
2023/06/25 12:09:55;;;;;;;15.40;13.90;;;;;;;26.27;55.68;94858.13;6155963;28;109007;-63
2023/06/25 12:12:58;;;;;;;15.23;13.93;;;;;;;26.27;55.16;94850.09;6135274;28;109347;-62
2023/06/25 12:16:01;;;;;;;15.07;13.77;;;;;;;26.21;55.15;94846.88;6160067;28;108990;-63
2023/06/25 12:19:05;;;;;;;16.70;14.93;;;;;;;26.22;55.20;94848.44;6144411;28;109102;-62
2023/06/25 12:22:08;;;;;;;15.87;14.57;;;;;;;26.25;55.43;94847.75;6140931;28;110190;-63
2023/06/25 12:25:12;;;;;;;18.87;17.07;;;;;;;26.25;55.38;94839.69;6130494;28;111686;-63
2023/06/25 12:28:15;;;;;;;16.97;15.50;;;;;;;26.34;55.54;94841.47;6158960;28;109166;-64
2023/06/25 12:31:18;;;;;;;17.40;15.60;;;;;;;26.31;55.39;94839.47;6164915;28;109230;-64
2023/06/25 12:34:22;;;;;;;16.63;15.23;;;;;;;26.33;55.48;94834.53;6158466;28;109011;-64
2023/06/25 12:37:25;;;;;;;15.83;14.53;;;;;;;26.34;55.43;94825.38;6150399;28;110314;-62
2023/06/25 12:40:29;;;;;;;17.37;15.87;;;;;;;26.32;55.11;94819.56;6164689;28;110531;-63
2023/06/25 12:43:33;;;;;;;16.90;15.40;;;;;;;26.34;55.27;94811.94;6164541;28;109200;-63
2023/06/25 12:46:36;;;;;;;16.93;15.43;;;;;;;26.36;55.17;94807.03;6155389;28;110224;-63
2023/06/25 12:49:39;;;;;;;15.60;14.23;;;;;;;26.31;55.37;94802.69;6164352;28;109052;-63
2023/06/25 12:52:42;;;;;;;16.00;14.60;;;;;;;26.28;55.83;94809.50;6164830;28;109030;-64
2023/06/25 12:55:47;;;;;;;16.00;14.70;;;;;;;26.29;55.80;94794.19;6160449;28;109184;-62
2023/06/25 12:58:50;;;;;;;15.33;14.03;;;;;;;26.33;55.53;94796.97;6147327;28;109008;-63
2023/06/25 13:01:56;;;;;;;14.43;13.23;;;;;;;26.32;55.51;94790.06;6164400;28;109288;-64
2023/06/25 13:05:00;;;;;;;14.93;13.63;;;;;;;26.32;55.55;94790.84;6162775;28;108953;-63
2023/06/25 13:08:03;;;;;;;14.30;12.93;;;;;;;26.38;55.71;94780.63;6153556;28;109009;-62
2023/06/25 13:11:07;;;;;;;14.27;12.90;;;;;;;26.42;55.05;94790.38;6144136;28;109321;-63
2023/06/25 13:14:10;;;;;;;13.63;12.43;;;;;;;26.45;55.19;94780.84;6151810;28;110111;-64
2023/06/25 13:17:14;;;;;;;13.90;12.60;;;;;;;26.43;55.22;94773.16;6157292;28;109137;-59
2023/06/25 13:20:17;;;;;;;13.60;12.50;;;;;;;26.43;55.59;94772.38;6141020;28;110358;-61
2023/06/25 13:23:20;;;;;;;22.43;20.07;;;;;;;26.35;56.62;94778.63;6161626;28;109958;-60
2023/06/25 13:26:26;;;;;;;30.10;27.07;;;;;;;26.28;57.20;94771.94;6149293;28;109316;-60
2023/06/25 13:29:29;;;;;;;37.77;34.07;;;;;;;26.24;58.35;94776.44;6139931;28;109625;-60
2023/06/25 13:32:32;;;;;;;36.17;32.77;;;;;;;26.23;58.64;94777.56;6137267;28;109658;-61
2023/06/25 13:35:36;;;;;;;33.77;30.60;;;;;;;26.28;58.21;94771.94;6158047;28;109376;-73
2023/06/25 13:38:40;;;;;;;37.13;33.37;;;;;;;26.39;57.78;94774.19;6154424;28;109206;-61
2023/06/25 13:41:44;;;;;;;40.87;36.77;;;;;;;26.40;58.26;94760.41;6161367;28;109028;-60
2023/06/25 13:44:47;;;;;;;43.33;39.33;;;;;;;26.40;58.05;94767.69;6149696;28;109164;-60
2023/06/25 13:47:50;;;;;;;46.50;41.33;;;;;;;26.41;57.53;94769.25;6163086;28;109794;-60
2023/06/25 13:50:53;;;;;;;44.93;40.33;;;;;;;26.43;58.13;94767.78;6159265;28;109048;-61
2023/06/25 13:53:57;;;;;;;43.17;39.10;;;;;;;26.37;57.87;94771.03;6150694;28;110268;-61
2023/06/25 13:57:02;;;;;;;43.27;39.23;;;;;;;26.33;58.24;94772.81;6157932;28;110020;-61
2023/06/25 14:00:06;;;;;;;45.67;41.17;;;;;;;26.41;57.15;94764.66;6159950;28;109998;-60
2023/06/25 14:03:10;;;;;;;45.13;40.53;;;;;;;26.38;57.64;94769.91;6143332;28;110023;-60
2023/06/25 14:06:15;;;;;;;44.73;40.33;;;;;;;26.40;57.06;94778.41;6153693;28;110104;-63